createdAt,value
2022-12-11T00:01:14.608Z,23.23
2022-12-11T00:03:44.464Z,25.07
2022-12-11T00:06:15.600Z,22.40
2022-12-11T00:08:43.935Z,21.40
2022-12-11T00:11:14.895Z,22.63
2022-12-11T00:13:43.984Z,22.97
2022-12-11T00:16:12.374Z,20.50
2022-12-11T00:18:41.520Z,26.07
2022-12-11T00:21:14.683Z,21.50
2022-12-11T00:23:43.374Z,24.40
2022-12-11T00:26:15.406Z,22.67
2022-12-11T00:28:45.108Z,22.27
2022-12-11T00:31:17.826Z,24.10
2022-12-11T00:33:48.988Z,22.77
2022-12-11T00:36:20.435Z,24.23
2022-12-11T00:38:49.861Z,22.53
2022-12-11T00:41:18.764Z,22.57
2022-12-11T00:43:47.468Z,20.73
2022-12-11T00:46:16.462Z,18.93
2022-12-11T00:48:46.184Z,22.37
2022-12-11T00:51:14.428Z,22.90
2022-12-11T00:53:44.584Z,24.53
2022-12-11T00:56:14.850Z,24.77
2022-12-11T00:58:43.764Z,25.70
2022-12-11T01:01:17.902Z,23.17
2022-12-11T01:03:46.509Z,20.53
2022-12-11T01:06:16.435Z,20.03
2022-12-11T01:08:47.325Z,22.73
2022-12-11T01:11:16.690Z,20.63
2022-12-11T01:13:45.392Z,20.80
2022-12-11T01:16:16.034Z,22.77
2022-12-11T01:18:44.747Z,19.73
2022-12-11T01:21:14.474Z,23.87
2022-12-11T01:23:42.927Z,18.73
2022-12-11T01:26:15.557Z,21.40
2022-12-11T01:28:44.229Z,21.07
2022-12-11T01:31:14.291Z,19.60
2022-12-11T01:33:42.987Z,20.20
2022-12-11T01:36:13.940Z,19.03
2022-12-11T01:38:42.810Z,18.97
2022-12-11T01:41:12.800Z,18.53
2022-12-11T01:44:01.759Z,16.70
2022-12-11T01:46:31.534Z,22.60
2022-12-11T01:49:01.938Z,18.10
2022-12-11T01:51:32.179Z,17.40
2022-12-11T01:54:03.683Z,14.53
2022-12-11T01:56:38.744Z,19.00
2022-12-11T01:59:09.538Z,20.03
2022-12-11T02:01:42.438Z,19.47
2022-12-11T02:04:12.400Z,18.37
2022-12-11T02:06:43.749Z,19.23
2022-12-11T02:09:15.302Z,21.40
2022-12-11T02:11:57.052Z,19.33
2022-12-11T02:14:33.688Z,23.67
2022-12-11T02:17:08.111Z,18.20
2022-12-11T02:19:49.526Z,21.57
2022-12-11T02:22:28.653Z,18.13
2022-12-11T02:25:10.136Z,17.17
2022-12-11T02:27:45.217Z,19.67
2022-12-11T02:30:16.076Z,18.73
2022-12-11T02:32:48.595Z,18.33
2022-12-11T02:35:22.520Z,17.13
2022-12-11T02:37:56.437Z,21.83
2022-12-11T02:40:31.035Z,21.47
2022-12-11T02:43:02.874Z,18.63
2022-12-11T02:45:34.946Z,19.87
2022-12-11T02:48:06.851Z,18.70
2022-12-11T02:50:40.227Z,16.03
2022-12-11T02:53:11.324Z,16.73
2022-12-11T02:55:41.616Z,18.33
2022-12-11T02:58:15.888Z,18.33
2022-12-11T03:00:46.675Z,15.67
2022-12-11T03:03:15.504Z,15.30
2022-12-11T03:05:46.253Z,17.23
2022-12-11T03:08:18.661Z,20.63
2022-12-11T03:10:47.291Z,15.33
2022-12-11T03:13:21.271Z,17.80
2022-12-11T03:16:09.337Z,20.00
2022-12-11T03:18:53.647Z,18.83
2022-12-11T03:21:36.176Z,19.50
2022-12-11T03:24:10.057Z,17.87
2022-12-11T03:26:43.709Z,14.83
2022-12-11T03:29:19.163Z,18.47
2022-12-11T03:31:54.792Z,15.43
2022-12-11T03:34:29.119Z,17.23
2022-12-11T03:37:00.979Z,16.10
2022-12-11T03:39:33.131Z,15.43
2022-12-11T03:42:04.038Z,15.63
2022-12-11T03:44:34.522Z,16.87
2022-12-11T03:47:08.026Z,15.47
2022-12-11T03:49:41.063Z,16.53
2022-12-11T03:52:12.484Z,16.67
2022-12-11T03:54:43.082Z,14.97
2022-12-11T03:57:16.215Z,15.47
2022-12-11T03:59:44.851Z,16.20
2022-12-11T04:02:14.527Z,18.47
2022-12-11T04:04:44.187Z,16.53
2022-12-11T04:07:12.647Z,18.60
2022-12-11T04:09:40.955Z,15.90
2022-12-11T04:12:09.320Z,16.70
2022-12-11T04:14:55.142Z,15.83
2022-12-11T04:17:42.400Z,18.23
2022-12-11T04:20:44.320Z,15.60
2022-12-11T04:23:32.530Z,14.20
2022-12-11T04:26:06.089Z,15.33
2022-12-11T04:28:34.926Z,14.50
2022-12-11T04:31:03.541Z,17.07
2022-12-11T04:33:33.451Z,14.97
2022-12-11T04:36:02.116Z,15.47
2022-12-11T04:38:30.468Z,15.20
2022-12-11T04:41:00.385Z,16.57
2022-12-11T04:43:28.738Z,13.07
2022-12-11T04:46:02.813Z,15.37
2022-12-11T04:48:31.132Z,14.37
2022-12-11T04:51:00.893Z,12.60
2022-12-11T04:53:30.770Z,14.57
2022-12-11T04:55:59.360Z,14.30
2022-12-11T04:58:27.755Z,14.03
2022-12-11T05:00:56.096Z,12.93
2022-12-11T05:03:24.549Z,14.17
2022-12-11T05:05:54.705Z,13.23
2022-12-11T05:08:24.513Z,13.40
2022-12-11T05:10:57.465Z,14.80
2022-12-11T05:13:25.889Z,11.60
2022-12-11T05:15:54.262Z,13.37
2022-12-11T05:18:22.835Z,11.93
2022-12-11T05:20:56.930Z,14.30
2022-12-11T05:23:27.273Z,12.50
2022-12-11T05:25:57.291Z,11.00
2022-12-11T05:28:26.889Z,14.10
2022-12-11T05:30:59.931Z,13.13
2022-12-11T05:33:28.460Z,14.17
2022-12-11T05:35:56.929Z,10.53
2022-12-11T05:38:26.893Z,14.43
2022-12-11T05:40:59.416Z,10.43
2022-12-11T05:43:29.367Z,13.20
2022-12-11T05:46:05.478Z,14.30
2022-12-11T05:48:33.851Z,12.10
2022-12-11T05:51:03.948Z,11.00
2022-12-11T05:53:34.282Z,12.83
2022-12-11T05:56:03.848Z,12.43
2022-12-11T05:58:33.136Z,10.07
2022-12-11T06:01:01.993Z,12.07
2022-12-11T06:03:30.345Z,11.93
2022-12-11T06:05:58.775Z,10.83
2022-12-11T06:08:27.243Z,10.53
2022-12-11T06:10:56.983Z,12.53
2022-12-11T06:13:25.630Z,12.17
2022-12-11T06:15:54.299Z,11.83
2022-12-11T06:18:22.923Z,18.37
2022-12-11T06:20:51.207Z,10.83
2022-12-11T06:23:19.516Z,14.20
2022-12-11T06:25:47.876Z,12.57
2022-12-11T06:28:17.633Z,10.00
2022-12-11T06:30:46.000Z,13.50
2022-12-11T06:33:14.606Z,13.63
2022-12-11T06:35:42.962Z,12.10
2022-12-11T06:38:11.546Z,14.47
2022-12-11T06:40:39.907Z,16.73
2022-12-11T06:43:08.368Z,21.83
2022-12-11T06:45:38.793Z,22.43
2022-12-11T06:48:07.559Z,18.90
2022-12-11T06:50:35.891Z,19.53
2022-12-11T06:53:04.206Z,15.37
2022-12-11T06:55:35.571Z,21.10
2022-12-11T06:58:04.108Z,15.00
2022-12-11T07:00:32.896Z,15.40
2022-12-11T07:03:02.534Z,19.20
2022-12-11T07:05:31.868Z,18.90
2022-12-11T07:08:00.295Z,20.60
2022-12-11T07:10:28.792Z,21.43
2022-12-11T07:12:57.585Z,18.83
2022-12-11T07:15:25.871Z,26.33
2022-12-11T07:17:54.549Z,31.63
2022-12-11T07:20:24.325Z,19.23
2022-12-11T07:22:52.775Z,14.37
2022-12-11T07:25:21.195Z,17.57
2022-12-11T07:27:49.563Z,15.87
2022-12-11T07:30:18.020Z,20.93
2022-12-11T07:32:46.483Z,14.53
2022-12-11T07:35:14.927Z,15.30
2022-12-11T07:37:45.895Z,14.80
2022-12-11T07:40:15.000Z,10.83
2022-12-11T07:42:46.286Z,12.63
2022-12-11T07:45:15.356Z,12.60
2022-12-11T07:47:43.755Z,16.77
2022-12-11T07:50:12.173Z,14.03
2022-12-11T07:52:40.822Z,18.47
2022-12-11T07:55:11.656Z,20.20
2022-12-11T07:57:40.274Z,14.27
2022-12-11T08:00:10.521Z,25.17
2022-12-11T08:02:39.237Z,20.87
2022-12-11T08:05:09.179Z,23.40
2022-12-11T08:07:37.651Z,18.43
2022-12-11T08:10:06.708Z,27.50
2022-12-11T08:12:39.700Z,20.27
2022-12-11T08:15:09.792Z,17.17
2022-12-11T08:17:40.139Z,19.23
2022-12-11T08:20:09.595Z,16.37
2022-12-11T08:22:38.132Z,21.60
2022-12-11T08:25:07.984Z,17.37
2022-12-11T08:27:36.498Z,17.13
2022-12-11T08:30:07.484Z,15.27
2022-12-11T08:32:36.451Z,19.40
2022-12-11T08:35:05.332Z,14.93
2022-12-11T08:37:34.963Z,14.77
2022-12-11T08:40:04.025Z,15.73
2022-12-11T08:42:32.341Z,10.67
2022-12-11T08:45:00.764Z,14.40
2022-12-11T08:47:30.483Z,12.03
2022-12-11T08:49:58.827Z,15.83
2022-12-11T08:52:27.227Z,35.87
2022-12-11T08:54:55.552Z,17.00
2022-12-11T08:57:23.930Z,19.43
2022-12-11T08:59:52.311Z,20.70
2022-12-11T09:02:20.720Z,20.40
2022-12-11T09:04:50.557Z,86.10
2022-12-11T09:07:18.951Z,69.77
2022-12-11T09:09:47.392Z,30.73
2022-12-11T09:12:15.781Z,24.30
2022-12-11T09:14:44.126Z,26.47
2022-12-11T09:17:18.536Z,26.00
2022-12-11T09:19:47.041Z,15.07
2022-12-11T09:22:16.749Z,15.40
2022-12-11T09:24:46.288Z,11.47
2022-12-11T09:27:14.811Z,16.90
2022-12-11T09:29:43.388Z,11.63
2022-12-11T09:32:12.291Z,14.73
2022-12-11T09:34:40.587Z,11.23
2022-12-11T09:37:08.984Z,11.60
2022-12-11T09:39:38.740Z,13.33
2022-12-11T09:42:14.611Z,11.63
2022-12-11T09:44:46.973Z,14.93
2022-12-11T09:47:24.935Z,19.57
2022-12-11T09:49:59.897Z,17.70
2022-12-11T09:52:35.807Z,14.00
2022-12-11T09:55:14.516Z,11.10
2022-12-11T09:57:51.844Z,9.60
2022-12-11T10:00:28.120Z,10.90
2022-12-11T10:03:41.261Z,11.37
2022-12-11T10:06:16.117Z,12.50
2022-12-11T10:08:52.713Z,11.30
2022-12-11T10:11:40.054Z,13.20
2022-12-11T10:14:17.280Z,16.87
2022-12-11T10:16:48.181Z,35.13
2022-12-11T10:19:20.513Z,34.53
2022-12-11T10:21:50.256Z,25.33
2022-12-11T10:24:48.866Z,27.40
2022-12-11T10:27:21.236Z,18.23
2022-12-11T10:29:55.145Z,21.17
2022-12-11T10:32:25.727Z,15.37
2022-12-11T10:35:00.376Z,12.77
2022-12-11T10:37:28.866Z,14.03
2022-12-11T10:39:57.244Z,13.00
2022-12-11T10:42:26.988Z,17.40
2022-12-11T10:45:00.481Z,13.13
2022-12-11T10:47:30.032Z,15.77
2022-12-11T10:50:01.943Z,15.07
2022-12-11T10:52:34.670Z,12.77
2022-12-11T10:55:05.716Z,16.30
2022-12-11T10:57:39.552Z,13.33
2022-12-11T11:00:10.422Z,13.80
2022-12-11T11:02:40.552Z,13.67
2022-12-11T11:05:18.291Z,13.60
2022-12-11T11:07:46.703Z,15.17
2022-12-11T11:10:17.807Z,14.37
2022-12-11T11:12:49.592Z,11.57
2022-12-11T11:15:20.797Z,11.73
2022-12-11T11:17:55.380Z,13.47
2022-12-11T11:20:26.570Z,12.63
2022-12-11T11:22:57.853Z,12.50
2022-12-11T11:25:28.176Z,12.63
2022-12-11T11:28:01.296Z,12.30
2022-12-11T11:30:32.234Z,12.93
2022-12-11T11:33:04.630Z,11.30
2022-12-11T11:35:34.067Z,9.60
2022-12-11T11:38:10.897Z,10.83
2022-12-11T11:40:45.651Z,11.73
2022-12-11T11:43:22.606Z,12.63
2022-12-11T11:45:58.737Z,17.17
2022-12-11T11:48:36.173Z,13.17
2022-12-11T11:51:15.027Z,10.70
2022-12-11T11:53:48.270Z,10.67
2022-12-11T11:56:22.421Z,11.27
2022-12-11T11:59:04.069Z,8.77
2022-12-11T12:01:32.926Z,11.17
2022-12-11T12:04:03.872Z,9.40
2022-12-11T12:06:50.471Z,9.87
2022-12-11T12:09:32.382Z,9.40
2022-12-11T12:12:22.793Z,9.43
2022-12-11T12:15:18.291Z,11.13
2022-12-11T12:17:56.179Z,8.93
2022-12-11T12:20:44.372Z,8.97
2022-12-11T12:23:39.719Z,7.20
2022-12-11T12:26:16.296Z,7.73
2022-12-11T12:28:53.920Z,9.30
2022-12-11T12:31:39.215Z,8.60
2022-12-11T12:34:22.836Z,6.63
2022-12-11T12:37:01.091Z,6.40
2022-12-11T12:39:35.827Z,8.47
2022-12-11T12:42:11.631Z,6.77
2022-12-11T12:44:51.248Z,6.60
2022-12-11T12:47:23.230Z,6.40
2022-12-11T12:49:54.218Z,7.37
2022-12-11T12:52:27.356Z,9.57
2022-12-11T12:55:18.855Z,7.80
2022-12-11T12:57:51.252Z,9.20
2022-12-11T13:00:31.622Z,9.10
2022-12-11T13:03:03.804Z,12.70
2022-12-11T13:05:35.531Z,9.13
2022-12-11T13:08:06.128Z,7.87
2022-12-11T13:10:37.051Z,8.07
2022-12-11T13:13:26.320Z,8.73
2022-12-11T13:15:54.718Z,9.17
2022-12-11T13:18:36.278Z,9.50
2022-12-11T13:21:25.650Z,5.97
2022-12-11T13:23:54.228Z,7.40
2022-12-11T13:26:30.633Z,7.00
2022-12-11T13:28:59.647Z,7.47
2022-12-11T13:31:35.031Z,7.50
2022-12-11T13:34:18.474Z,10.10
2022-12-11T13:36:50.180Z,7.80
2022-12-11T13:39:21.292Z,7.97
2022-12-11T13:41:53.620Z,7.93
2022-12-11T13:44:27.063Z,9.27
2022-12-11T13:46:58.269Z,8.53
2022-12-11T13:49:33.485Z,8.13
2022-12-11T13:52:02.927Z,10.63
2022-12-11T13:54:33.423Z,5.90
2022-12-11T13:57:05.431Z,8.90
2022-12-11T13:59:36.950Z,14.43
2022-12-11T14:02:14.586Z,9.97
2022-12-11T14:04:44.712Z,9.00
2022-12-11T14:07:13.527Z,9.83
2022-12-11T14:09:45.460Z,11.53
2022-12-11T14:12:19.086Z,10.73
2022-12-11T14:14:51.442Z,19.63
2022-12-11T14:17:27.814Z,13.07
2022-12-11T14:20:00.335Z,16.47
2022-12-11T14:22:30.444Z,17.07
2022-12-11T14:25:00.919Z,12.87
2022-12-11T14:27:29.346Z,18.00
2022-12-11T14:29:57.779Z,16.37
2022-12-11T14:32:34.787Z,12.53
2022-12-11T14:35:09.197Z,12.53
2022-12-11T14:37:39.656Z,10.23
2022-12-11T14:40:11.510Z,15.90
2022-12-11T14:42:45.205Z,10.07
2022-12-11T14:45:21.793Z,12.00
2022-12-11T14:47:51.835Z,10.57
2022-12-11T14:50:27.048Z,9.57
2022-12-11T14:53:00.991Z,11.50
2022-12-11T14:55:31.734Z,10.27
2022-12-11T14:58:03.765Z,11.67
2022-12-11T15:00:35.820Z,11.40
2022-12-11T15:03:07.227Z,10.20
2022-12-11T15:05:40.945Z,7.53
2022-12-11T15:08:24.790Z,6.67
2022-12-11T15:11:05.659Z,6.10
2022-12-11T15:13:36.301Z,5.77
2022-12-11T15:16:07.680Z,5.73
2022-12-11T15:18:39.204Z,6.50
2022-12-11T15:21:11.995Z,8.67
2022-12-11T15:23:51.438Z,7.37
2022-12-11T15:26:20.536Z,5.03
2022-12-11T15:28:48.920Z,4.07
2022-12-11T15:31:27.783Z,5.70
2022-12-11T15:33:56.173Z,5.43
2022-12-11T15:36:31.378Z,5.93
2022-12-11T15:38:59.791Z,5.33
2022-12-11T15:41:33.095Z,8.13
2022-12-11T15:44:03.589Z,6.70
2022-12-11T15:46:37.539Z,6.77
2022-12-11T15:49:13.633Z,4.90
2022-12-11T15:51:43.643Z,6.57
2022-12-11T15:54:12.201Z,8.87
2022-12-11T15:56:40.684Z,4.80
2022-12-11T15:59:09.223Z,5.93
2022-12-11T16:01:37.644Z,7.07
2022-12-11T16:04:06.214Z,9.50
2022-12-11T16:06:35.201Z,8.90
2022-12-11T16:09:05.711Z,12.77
2022-12-11T16:11:34.012Z,7.83
2022-12-11T16:14:04.342Z,9.37
2022-12-11T16:16:33.374Z,9.13
2022-12-11T16:19:01.928Z,8.90
2022-12-11T16:21:30.347Z,7.30
2022-12-11T16:23:58.716Z,7.70
2022-12-11T16:26:28.483Z,6.67
2022-12-11T16:28:56.984Z,9.50
2022-12-11T16:31:25.327Z,8.20
2022-12-11T16:33:53.747Z,8.43
2022-12-11T16:36:22.143Z,6.63
2022-12-11T16:38:53.905Z,7.63
2022-12-11T16:41:23.811Z,8.27
2022-12-11T16:43:55.322Z,10.20
2022-12-11T16:46:24.959Z,5.87
2022-12-11T16:48:53.393Z,6.20
2022-12-11T16:51:21.760Z,6.47
2022-12-11T16:53:50.358Z,7.20
2022-12-11T16:56:18.777Z,9.23
2022-12-11T16:58:48.224Z,8.93
2022-12-11T17:01:18.135Z,7.07
2022-12-11T17:03:46.728Z,8.83
2022-12-11T17:06:18.049Z,11.50
2022-12-11T17:08:47.372Z,8.83
2022-12-11T17:11:18.488Z,10.63
2022-12-11T17:13:47.210Z,12.07
2022-12-11T17:16:18.160Z,12.00
2022-12-11T17:18:46.671Z,9.90
2022-12-11T17:21:17.507Z,11.00
2022-12-11T17:23:46.592Z,11.20
2022-12-11T17:26:15.527Z,12.73
2022-12-11T17:28:44.714Z,12.00
2022-12-11T17:31:16.786Z,14.77
2022-12-11T17:33:47.420Z,13.03
2022-12-11T17:36:17.777Z,12.70
2022-12-11T17:38:46.705Z,10.20
2022-12-11T17:41:20.410Z,12.73
2022-12-11T17:43:49.987Z,12.30
2022-12-11T17:46:19.225Z,13.10
2022-12-11T17:48:49.596Z,14.70
2022-12-11T17:51:23.836Z,18.77
2022-12-11T17:53:52.894Z,14.47
2022-12-11T17:56:21.311Z,17.80
2022-12-11T17:58:49.674Z,17.43
2022-12-11T18:01:18.267Z,17.70
2022-12-11T18:03:48.284Z,17.93
2022-12-11T18:06:17.759Z,16.30
2022-12-11T18:08:46.373Z,13.03
2022-12-11T18:11:22.950Z,14.43
2022-12-11T18:13:52.760Z,14.90
2022-12-11T18:16:24.460Z,12.87
2022-12-11T18:18:54.909Z,13.27
2022-12-11T18:21:25.831Z,13.07
2022-12-11T18:23:54.412Z,12.47
2022-12-11T18:26:23.462Z,13.67
2022-12-11T18:28:52.990Z,12.70
2022-12-11T18:31:22.480Z,17.57
2022-12-11T18:33:51.252Z,15.43
2022-12-11T18:36:22.679Z,18.27
2022-12-11T18:38:51.100Z,29.67
2022-12-11T18:41:20.988Z,25.50
2022-12-11T18:43:49.434Z,23.63
2022-12-11T18:46:19.994Z,21.20
2022-12-11T18:48:49.109Z,15.47
2022-12-11T18:51:22.613Z,14.70
2022-12-11T18:53:51.077Z,12.53
2022-12-11T18:56:21.240Z,14.47
2022-12-11T18:58:49.893Z,14.83
2022-12-11T19:01:20.257Z,13.43
2022-12-11T19:03:48.887Z,14.07
2022-12-11T19:06:21.103Z,16.17
2022-12-11T19:08:49.504Z,16.67
2022-12-11T19:11:19.219Z,12.73
2022-12-11T19:13:48.392Z,13.87
2022-12-11T19:16:18.317Z,13.03
2022-12-11T19:18:47.008Z,13.47
2022-12-11T19:21:17.615Z,9.47
2022-12-11T19:23:47.635Z,10.70
2022-12-11T19:26:18.846Z,11.77
2022-12-11T19:28:48.318Z,15.37
2022-12-11T19:31:18.861Z,16.43
2022-12-11T19:33:47.355Z,34.83
2022-12-11T19:36:18.138Z,14.63
2022-12-11T19:38:47.883Z,15.93
2022-12-11T19:41:19.819Z,16.83
2022-12-11T19:43:48.413Z,28.53
2022-12-11T19:46:18.205Z,17.83
2022-12-11T19:48:49.088Z,13.93
2022-12-11T19:51:19.359Z,23.23
2022-12-11T19:53:49.984Z,16.90
2022-12-11T19:56:19.775Z,12.90
2022-12-11T19:58:49.935Z,12.83
2022-12-11T20:01:24.960Z,19.90
2022-12-11T20:03:53.719Z,16.03
2022-12-11T20:06:22.725Z,14.07
2022-12-11T20:08:52.442Z,18.80
2022-12-11T20:11:20.944Z,13.40
2022-12-11T20:13:50.088Z,15.60
2022-12-11T20:16:39.214Z,12.27
2022-12-11T20:19:08.692Z,15.17
2022-12-11T20:21:37.103Z,15.07
2022-12-11T20:24:07.667Z,13.53
2022-12-11T20:26:36.992Z,9.43
2022-12-11T20:29:08.353Z,9.53
2022-12-11T20:31:37.878Z,10.03
2022-12-11T20:34:07.199Z,11.30
2022-12-11T20:36:35.899Z,10.30
2022-12-11T20:39:06.257Z,9.87
2022-12-11T20:41:34.624Z,10.63
2022-12-11T20:44:02.939Z,7.70
2022-12-11T20:46:31.294Z,7.70
2022-12-11T20:48:59.756Z,8.30
2022-12-11T20:51:29.172Z,6.30
2022-12-11T20:53:59.508Z,9.40
2022-12-11T20:56:31.583Z,9.57
2022-12-11T20:59:00.895Z,7.47
2022-12-11T21:01:32.373Z,6.63
2022-12-11T21:04:01.362Z,8.17
2022-12-11T21:06:32.650Z,7.20
2022-12-11T21:09:05.624Z,9.30
2022-12-11T21:11:35.557Z,6.43
2022-12-11T21:14:03.890Z,6.60
2022-12-11T21:16:32.394Z,6.60
2022-12-11T21:19:01.622Z,8.67
2022-12-11T21:21:32.268Z,7.40
2022-12-11T21:24:00.612Z,7.63
2022-12-11T21:26:28.995Z,7.77
2022-12-11T21:28:58.656Z,10.07
2022-12-11T21:31:27.299Z,10.60
2022-12-11T21:33:55.908Z,7.63
2022-12-11T21:36:24.312Z,7.37
2022-12-11T21:38:52.759Z,8.43
2022-12-11T21:41:22.930Z,8.03
2022-12-11T21:46:43.386Z,8.83
2022-12-11T21:49:11.995Z,8.27
2022-12-11T21:51:46.727Z,8.10
2022-12-11T21:54:18.867Z,10.70
2022-12-11T21:56:47.979Z,12.37
2022-12-11T21:59:16.899Z,12.30
2022-12-11T22:01:47.460Z,13.57
2022-12-11T22:04:16.545Z,14.23
2022-12-11T22:06:47.054Z,11.63
2022-12-11T22:09:17.887Z,13.73
2022-12-11T22:11:47.640Z,6.60
2022-12-11T22:14:18.010Z,7.47
2022-12-11T22:16:47.892Z,5.87
2022-12-11T22:19:16.264Z,5.63
2022-12-11T22:21:44.673Z,6.50
2022-12-11T22:24:14.066Z,6.37
2022-12-11T22:26:42.393Z,6.77
2022-12-11T22:29:10.843Z,8.57
2022-12-11T22:31:39.191Z,10.10
2022-12-11T22:34:09.120Z,7.93
2022-12-11T22:36:38.435Z,7.83
2022-12-11T22:39:06.800Z,6.47
2022-12-11T22:41:38.315Z,6.63
2022-12-11T22:44:06.616Z,13.07
2022-12-11T22:46:34.962Z,8.40
2022-12-11T22:49:04.205Z,11.03
2022-12-11T22:51:34.678Z,11.07
2022-12-11T22:54:03.282Z,7.80
2022-12-11T22:56:31.714Z,8.20
2022-12-11T22:59:01.019Z,8.63
2022-12-11T23:01:29.451Z,7.60
2022-12-11T23:03:57.716Z,6.70
2022-12-11T23:06:26.529Z,7.87
2022-12-11T23:08:59.262Z,9.03
2022-12-11T23:11:30.663Z,7.77
2022-12-11T23:13:59.182Z,7.10
2022-12-11T23:16:28.837Z,8.90
2022-12-11T23:18:58.130Z,8.30
2022-12-11T23:21:28.031Z,8.20
2022-12-11T23:23:58.195Z,5.57
2022-12-11T23:26:28.272Z,4.90
2022-12-11T23:28:58.051Z,7.33
2022-12-11T23:31:27.904Z,6.00
2022-12-11T23:33:56.261Z,7.13
2022-12-11T23:36:26.335Z,5.97
2022-12-11T23:38:55.362Z,6.73
2022-12-11T23:41:25.514Z,6.37
2022-12-11T23:43:53.842Z,6.90
2022-12-11T23:46:24.474Z,5.93
2022-12-11T23:48:53.553Z,9.47
2022-12-11T23:51:23.551Z,7.97
2022-12-11T23:53:52.618Z,7.13
2022-12-11T23:56:23.142Z,4.57
2022-12-11T23:58:52.899Z,3.83
